Time;durP1;ratioP1;P1;durP2;ratioP2;P2;SDS_P1;SDS_P2;PMS_P1;PMS_P2;Temp;Humidity;BMP_temperature;BMP_pressure;BME280_temperature;BME280_humidity;BME280_pressure;Samples;Min_cycle;Max_cycle;Signal;HPM_P1;HPM_P2
2022/12/22 03:27:00;;;;;;;5.00;4.70;;;12.20;99.90;;;;;;5029399;28;20428;-64
2022/12/22 03:29:25;;;;;;;5.13;4.63;;;12.30;99.90;;;;;;5030245;28;20434;-64
2022/12/22 03:31:51;;;;;;;5.57;5.17;;;12.30;99.90;;;;;;5028237;28;20193;-64
2022/12/22 03:34:17;;;;;;;5.60;5.20;;;12.40;99.90;;;;;;5026251;28;20178;-67
2022/12/22 03:36:42;;;;;;;5.37;4.97;;;12.30;99.90;;;;;;5027609;28;20212;-64
2022/12/22 03:39:08;;;;;;;5.00;4.80;;;12.30;99.90;;;;;;5027352;28;20194;-65
2022/12/22 03:47:03;;;;;;;5.33;5.03;;;12.30;99.90;;;;;;5025699;28;20428;-64
2022/12/22 03:49:29;;;;;;;6.37;5.00;;;12.30;99.90;;;;;;5029256;28;20483;-64
2022/12/22 03:51:54;;;;;;;5.77;5.37;;;12.30;99.90;;;;;;5026336;28;20695;-64
2022/12/22 03:54:25;;;;;;;5.03;4.63;;;12.30;99.90;;;;;;5027035;28;20190;-64
2022/12/22 03:56:52;;;;;;;4.90;4.60;;;12.30;99.90;;;;;;5033463;28;20567;-69
2022/12/22 03:59:18;;;;;;;5.57;4.80;;;12.20;99.90;;;;;;5032370;28;20433;-64
2022/12/22 04:01:47;;;;;;;6.03;5.63;;;12.20;99.90;;;;;;5030961;28;20469;-64
2022/12/22 04:04:15;;;;;;;4.77;4.47;;;12.20;99.90;;;;;;5031511;28;20428;-67
2022/12/22 04:06:41;;;;;;;5.10;4.80;;;12.30;99.90;;;;;;5033820;28;20943;-65
2022/12/22 04:09:07;;;;;;;4.97;4.53;;;12.30;99.90;;;;;;5031866;28;20433;-72
2022/12/22 04:14:17;;;;;;;4.63;4.33;;;12.30;99.90;;;;;;5034597;28;20197;-64
2022/12/22 04:16:43;;;;;;;5.23;4.90;;;12.30;99.90;;;;;;5032905;28;20428;-64
2022/12/22 04:19:09;;;;;;;6.60;4.50;;;12.20;99.90;;;;;;5031928;28;20701;-72
2022/12/22 04:21:35;;;;;;;4.93;4.63;;;12.30;99.90;;;;;;5030496;28;20670;-64
2022/12/22 04:24:01;;;;;;;6.33;5.80;;;12.30;99.90;;;;;;5032908;28;20268;-64
2022/12/22 04:26:27;;;;;;;5.23;4.87;;;12.30;99.90;;;;;;5031868;28;20444;-64
2022/12/22 04:28:53;;;;;;;5.50;5.10;;;12.30;99.90;;;;;;5027483;28;20277;-64
2022/12/22 04:31:21;;;;;;;5.90;5.30;;;12.30;99.90;;;;;;5032923;28;20428;-64
2022/12/22 04:33:47;;;;;;;5.47;4.97;;;12.30;99.90;;;;;;5031952;28;20431;-64
2022/12/22 04:36:13;;;;;;;6.07;5.47;;;12.30;99.90;;;;;;5023708;28;20439;-64
2022/12/22 04:38:39;;;;;;;4.77;4.47;;;12.40;99.90;;;;;;5031956;28;20547;-65
2022/12/22 04:41:05;;;;;;;5.57;5.27;;;12.40;99.90;;;;;;5032527;28;20440;-64
2022/12/22 04:43:32;;;;;;;6.00;5.60;;;12.40;99.90;;;;;;5028918;28;20472;-64
2022/12/22 04:45:57;;;;;;;5.90;5.50;;;12.40;99.90;;;;;;5033123;28;20429;-64
2022/12/22 04:48:25;;;;;;;5.93;5.60;;;12.40;99.90;;;;;;5030811;28;20475;-64
2022/12/22 04:50:52;;;;;;;5.20;4.80;;;12.40;99.90;;;;;;5033875;28;20187;-64
2022/12/22 04:53:19;;;;;;;5.43;5.13;;;12.50;99.90;;;;;;5027237;28;20789;-68
2022/12/22 04:55:46;;;;;;;5.40;5.00;;;12.50;99.90;;;;;;5033586;28;20428;-65
2022/12/22 04:58:12;;;;;;;5.30;4.83;;;12.40;99.90;;;;;;5030766;28;20788;-72
2022/12/22 05:00:38;;;;;;;5.40;5.00;;;12.50;99.90;;;;;;5032205;28;20428;-64
2022/12/22 05:03:03;;;;;;;5.43;5.10;;;12.40;99.90;;;;;;5032801;28;20214;-64
2022/12/22 05:05:29;;;;;;;4.87;4.57;;;12.40;99.90;;;;;;5031832;28;20257;-64
2022/12/22 05:07:55;;;;;;;4.43;4.23;;;12.40;99.90;;;;;;5030529;28;20201;-64
2022/12/22 05:10:20;;;;;;;5.00;4.70;;;12.40;99.90;;;;;;5029512;28;20192;-65
2022/12/22 05:12:55;;;;;;;5.50;5.00;;;12.40;99.90;;;;;;5034843;28;20181;-64
2022/12/22 05:15:27;;;;;;;4.60;4.30;;;12.40;99.90;;;;;;5035311;28;20220;-66
2022/12/22 05:17:53;;;;;;;4.90;4.70;;;12.50;99.90;;;;;;5029260;28;21769;-64
2022/12/22 05:20:19;;;;;;;5.13;4.73;;;12.40;99.90;;;;;;5031074;28;20536;-69
2022/12/22 05:22:45;;;;;;;4.60;4.40;;;12.50;99.90;;;;;;5021498;28;20392;-64
2022/12/22 05:25:11;;;;;;;6.00;5.03;;;12.50;99.90;;;;;;5031818;28;20485;-72
2022/12/22 05:27:37;;;;;;;5.07;4.77;;;12.50;99.90;;;;;;5026577;28;20530;-64
2022/12/22 05:30:04;;;;;;;4.77;4.47;;;12.50;99.90;;;;;;5029393;28;20549;-70
2022/12/22 05:32:32;;;;;;;3.20;3.10;;;12.50;99.90;;;;;;5032890;28;20627;-64
2022/12/22 05:34:58;;;;;;;3.60;3.40;;;12.50;99.90;;;;;;5031019;28;20518;-64
2022/12/22 05:37:24;;;;;;;3.47;3.17;;;12.60;99.90;;;;;;5030571;28;20471;-64
2022/12/22 05:39:49;;;;;;;3.60;3.40;;;12.60;99.90;;;;;;5031193;28;20268;-64
2022/12/22 05:42:34;;;;;;;4.20;3.90;;;12.60;99.90;;;;;;5034010;28;20524;-67
2022/12/22 05:45:15;;;;;;;3.90;3.70;;;12.60;99.90;;;;;;5025334;28;20174;-64
2022/12/22 05:47:42;;;;;;;4.20;4.00;;;12.60;99.90;;;;;;5031378;28;20507;-63
2022/12/22 05:50:09;;;;;;;5.30;4.83;;;12.60;99.90;;;;;;5030405;28;20464;-66
2022/12/22 05:52:35;;;;;;;5.13;4.60;;;12.60;99.90;;;;;;5026636;28;20881;-64
2022/12/22 05:55:01;;;;;;;8.40;5.53;;;12.60;99.90;;;;;;5029158;28;20511;-64
2022/12/22 05:57:27;;;;;;;4.60;4.40;;;12.60;99.90;;;;;;5029847;28;20433;-64
2022/12/22 05:59:55;;;;;;;4.40;4.10;;;12.60;99.90;;;;;;5033113;28;20434;-64
2022/12/22 06:02:20;;;;;;;4.10;3.80;;;12.60;99.90;;;;;;5031542;28;20459;-64
2022/12/22 06:04:46;;;;;;;3.80;3.60;;;12.50;99.90;;;;;;5034822;28;20568;-64
2022/12/22 06:07:12;;;;;;;3.90;3.70;;;12.50;99.90;;;;;;5030329;28;20192;-67
2022/12/22 06:09:37;;;;;;;3.70;3.30;;;12.50;99.90;;;;;;5023945;28;20210;-65
2022/12/22 06:12:03;;;;;;;3.40;3.30;;;12.50;99.90;;;;;;5025849;28;20194;-66
2022/12/22 06:14:29;;;;;;;3.53;3.33;;;12.50;99.90;;;;;;5027735;28;20631;-64
2022/12/22 06:16:55;;;;;;;4.00;3.80;;;12.50;99.90;;;;;;5028620;28;20490;-70
2022/12/22 06:19:21;;;;;;;4.20;3.90;;;12.50;99.90;;;;;;5027789;28;20189;-67
2022/12/22 06:21:46;;;;;;;4.00;3.80;;;12.50;99.90;;;;;;5029674;28;20202;-67
2022/12/22 06:24:12;;;;;;;4.13;3.93;;;12.60;99.90;;;;;;5030536;28;20252;-67
2022/12/22 06:26:38;;;;;;;3.97;3.67;;;12.60;99.90;;;;;;5028876;28;20191;-73
2022/12/22 06:29:03;;;;;;;4.13;3.93;;;12.70;99.90;;;;;;5029378;28;20264;-68
2022/12/22 06:31:29;;;;;;;4.13;3.93;;;12.70;99.90;;;;;;5025824;28;20193;-67
2022/12/22 06:33:55;;;;;;;4.30;4.10;;;12.80;99.90;;;;;;5028382;28;20184;-68
2022/12/22 06:36:20;;;;;;;3.50;3.40;;;12.80;99.90;;;;;;5023915;28;20212;-71
2022/12/22 06:38:46;;;;;;;4.00;3.80;;;12.90;99.90;;;;;;5026567;28;20198;-64
2022/12/22 06:41:12;;;;;;;3.40;3.20;;;12.90;99.90;;;;;;5029580;28;20639;-64
2022/12/22 06:43:37;;;;;;;4.10;3.70;;;12.90;99.90;;;;;;5030005;28;20210;-64
2022/12/22 06:46:03;;;;;;;3.57;3.37;;;13.00;99.90;;;;;;5031531;28;20187;-64
2022/12/22 06:48:29;;;;;;;4.00;3.70;;;12.90;99.90;;;;;;5030490;28;20196;-64
2022/12/22 06:50:58;;;;;;;4.37;3.87;;;12.90;99.90;;;;;;5024017;28;20207;-71
2022/12/22 06:53:25;;;;;;;3.80;3.60;;;12.90;99.90;;;;;;5029606;28;20178;-64
2022/12/22 06:55:50;;;;;;;3.33;3.13;;;12.90;99.90;;;;;;5028681;28;20436;-64
2022/12/22 06:58:16;;;;;;;3.63;3.40;;;12.90;99.90;;;;;;5029578;28;20438;-71
2022/12/22 07:00:42;;;;;;;3.27;3.17;;;12.90;99.90;;;;;;5027632;28;20184;-64
2022/12/22 07:03:08;;;;;;;3.50;3.40;;;12.90;99.90;;;;;;5029041;28;20338;-68
2022/12/22 07:05:34;;;;;;;3.63;3.00;;;12.90;99.90;;;;;;5026151;28;20555;-63
2022/12/22 07:07:59;;;;;;;2.93;2.83;;;12.80;99.90;;;;;;5021178;28;20439;-62
2022/12/22 07:13:18;;;;;;;3.40;3.20;;;12.80;99.90;;;;;;5022578;28;20179;-63
2022/12/22 07:15:45;;;;;;;3.97;3.03;;;12.80;99.90;;;;;;5028141;28;20435;-63
2022/12/22 07:18:11;;;;;;;3.33;3.13;;;12.80;99.90;;;;;;5025256;28;20530;-67
2022/12/22 07:20:37;;;;;;;4.83;3.67;;;12.80;99.90;;;;;;5026321;28;20464;-64
2022/12/22 07:23:02;;;;;;;3.17;2.97;;;12.80;99.90;;;;;;5021785;28;20499;-67
2022/12/22 07:25:28;;;;;;;4.30;4.00;;;12.90;99.90;;;;;;5025745;28;20186;-64
2022/12/22 07:27:54;;;;;;;3.53;3.23;;;12.80;99.90;;;;;;5029030;28;20195;-64
2022/12/22 07:30:19;;;;;;;3.30;3.10;;;12.80;99.90;;;;;;5032615;28;20190;-67
2022/12/22 07:32:45;;;;;;;4.50;4.20;;;12.80;99.90;;;;;;5030861;28;20182;-64
2022/12/22 07:35:11;;;;;;;3.50;3.40;;;12.80;99.90;;;;;;5033638;28;20182;-65
2022/12/22 07:37:36;;;;;;;4.30;4.00;;;12.90;99.90;;;;;;5034878;28;20892;-63
2022/12/22 07:40:02;;;;;;;3.77;3.47;;;12.90;99.90;;;;;;5035802;28;20186;-63
2022/12/22 07:42:43;;;;;;;4.10;3.90;;;12.90;99.90;;;;;;5034179;28;20272;-63
2022/12/22 07:45:11;;;;;;;3.90;3.70;;;12.90;99.90;;;;;;5031946;28;20448;-64
2022/12/22 07:47:37;;;;;;;4.37;4.07;;;12.90;99.90;;;;;;5033523;28;20426;-65
2022/12/22 07:52:47;;;;;;;9.63;4.63;;;12.90;99.90;;;;;;5033817;28;20433;-63
2022/12/22 07:55:13;;;;;;;4.70;4.47;;;12.90;99.90;;;;;;5034028;28;20809;-63
2022/12/22 07:57:39;;;;;;;4.43;4.10;;;12.90;99.90;;;;;;5033410;28;20194;-63
2022/12/22 08:00:06;;;;;;;4.83;4.43;;;12.90;99.90;;;;;;5032035;28;20379;-65
2022/12/22 08:02:32;;;;;;;4.80;4.50;;;12.80;99.90;;;;;;5034741;28;20964;-65
2022/12/22 08:04:57;;;;;;;4.83;4.50;;;12.90;99.90;;;;;;5031179;28;20448;-65
2022/12/22 08:07:23;;;;;;;5.07;4.13;;;12.90;99.90;;;;;;5034461;28;20643;-67
2022/12/22 08:09:49;;;;;;;4.73;4.33;;;12.90;99.90;;;;;;5031336;28;20429;-66
2022/12/22 08:12:15;;;;;;;4.97;4.43;;;12.90;99.90;;;;;;5030110;28;20190;-63
2022/12/22 08:14:44;;;;;;;5.00;4.70;;;12.80;99.90;;;;;;5031889;28;20179;-64
2022/12/22 08:17:11;;;;;;;5.03;4.67;;;12.90;99.90;;;;;;5030889;28;20410;-63
2022/12/22 08:19:36;;;;;;;5.50;5.10;;;12.80;99.90;;;;;;5035641;28;20483;-63
2022/12/22 08:22:03;;;;;;;5.40;5.10;;;12.90;99.90;;;;;;5032190;28;20492;-64
2022/12/22 08:24:29;;;;;;;6.37;5.80;;;12.80;99.90;;;;;;5033900;28;20201;-63
2022/12/22 08:26:59;;;;;;;5.67;5.27;;;12.80;99.90;;;;;;5033476;28;20434;-63
2022/12/22 08:29:31;;;;;;;6.43;5.93;;;12.80;99.90;;;;;;5034742;28;20560;-69
2022/12/22 08:31:56;;;;;;;8.53;7.73;;;12.70;99.90;;;;;;5034582;28;20444;-63
2022/12/22 08:34:23;;;;;;;7.43;6.83;;;12.70;99.90;;;;;;5035379;28;20503;-69
2022/12/22 08:36:55;;;;;;;8.13;7.53;;;12.70;99.90;;;;;;5030261;28;20266;-64
2022/12/22 08:39:22;;;;;;;9.10;8.30;;;12.70;99.90;;;;;;5029118;28;20431;-62
2022/12/22 08:41:50;;;;;;;9.33;8.53;;;12.60;99.90;;;;;;5032887;28;20453;-63
2022/12/22 08:44:26;;;;;;;8.17;7.47;;;12.60;99.90;;;;;;5032742;28;20440;-63
2022/12/22 08:46:53;;;;;;;10.07;9.17;;;12.60;99.90;;;;;;5031114;28;20432;-63
2022/12/22 08:49:19;;;;;;;9.80;8.90;;;12.60;99.90;;;;;;5028737;28;20518;-63
2022/12/22 08:51:46;;;;;;;10.87;9.20;;;12.60;99.90;;;;;;5028245;28;21326;-64
2022/12/22 08:54:12;;;;;;;8.83;8.03;;;12.70;99.90;;;;;;5029037;28;20429;-63
2022/12/22 08:56:38;;;;;;;12.23;9.70;;;12.60;99.90;;;;;;5032884;28;20820;-63
2022/12/22 08:59:07;;;;;;;10.03;9.00;;;12.50;99.90;;;;;;5040239;28;20428;-63
2022/12/22 09:01:35;;;;;;;9.67;8.67;;;12.50;99.90;;;;;;5031807;28;20219;-65
2022/12/22 09:04:02;;;;;;;9.90;8.90;;;12.50;99.90;;;;;;5032967;28;20531;-62
2022/12/22 09:06:28;;;;;;;11.30;10.10;;;12.50;99.90;;;;;;5027885;28;20437;-63
2022/12/22 09:08:59;;;;;;;10.90;9.80;;;12.50;99.90;;;;;;5031473;28;20437;-63
2022/12/22 09:11:25;;;;;;;15.20;12.97;;;12.50;99.90;;;;;;5029640;28;20426;-68
2022/12/22 09:13:52;;;;;;;11.27;10.20;;;12.50;99.90;;;;;;5033725;28;20528;-67
2022/12/22 09:16:20;;;;;;;9.80;8.97;;;12.50;99.90;;;;;;5032488;28;20464;-63
2022/12/22 09:18:46;;;;;;;10.60;9.53;;;12.60;99.90;;;;;;5029938;28;20432;-63
2022/12/22 09:21:12;;;;;;;11.27;10.20;;;12.60;99.90;;;;;;5031116;28;20439;-63
2022/12/22 09:23:37;;;;;;;11.07;10.07;;;12.60;99.90;;;;;;5032223;28;20483;-63
2022/12/22 09:26:07;;;;;;;10.80;9.80;;;12.50;99.90;;;;;;5033448;28;20188;-64
2022/12/22 09:28:34;;;;;;;11.70;10.60;;;12.50;99.90;;;;;;5030471;28;20206;-63
2022/12/22 09:31:00;;;;;;;11.87;10.70;;;12.50;99.90;;;;;;5031460;28;20440;-63
2022/12/22 09:33:25;;;;;;;11.80;10.70;;;12.50;99.90;;;;;;5031559;28;20987;-68
2022/12/22 09:35:51;;;;;;;12.93;11.83;;;12.50;99.90;;;;;;5031227;28;20314;-64
2022/12/22 09:38:17;;;;;;;14.43;13.13;;;12.60;99.90;;;;;;5032444;28;20192;-63
2022/12/22 09:40:43;;;;;;;13.83;12.53;;;12.50;99.90;;;;;;5032159;28;20433;-63
2022/12/22 09:43:17;;;;;;;14.17;12.77;;;12.60;99.90;;;;;;5029827;28;20594;-63
2022/12/22 09:45:43;;;;;;;13.20;11.03;;;12.50;99.90;;;;;;5032946;28;20222;-63
2022/12/22 09:48:12;;;;;;;13.03;11.73;;;12.40;99.90;;;;;;5031703;28;20433;-63
2022/12/22 09:50:39;;;;;;;12.87;10.90;;;12.40;99.90;;;;;;5029986;28;20602;-63
2022/12/22 09:53:11;;;;;;;11.47;10.37;;;12.40;99.90;;;;;;5033203;28;20826;-63
2022/12/22 09:55:46;;;;;;;14.00;11.97;;;12.40;99.90;;;;;;5031594;28;20456;-63
2022/12/22 09:58:27;;;;;;;12.40;11.20;;;12.50;99.90;;;;;;5031739;28;20449;-63
2022/12/22 10:01:11;;;;;;;12.07;10.87;;;12.50;99.90;;;;;;5031349;28;20437;-63
2022/12/22 10:03:48;;;;;;;12.53;11.23;;;12.60;99.90;;;;;;5027666;28;20514;-63
2022/12/22 10:06:28;;;;;;;11.20;10.20;;;12.70;99.90;;;;;;5027064;28;20443;-63
2022/12/22 10:08:54;;;;;;;10.93;9.97;;;12.60;99.90;;;;;;5031413;28;20457;-63
2022/12/22 10:11:19;;;;;;;10.80;9.77;;;12.60;99.90;;;;;;5029515;28;20465;-63
2022/12/22 10:13:45;;;;;;;11.90;10.70;;;12.70;99.90;;;;;;5030516;28;20181;-63
2022/12/22 10:16:23;;;;;;;11.37;10.27;;;12.70;99.90;;;;;;5029126;28;20185;-63
2022/12/22 10:19:21;;;;;;;14.00;11.47;;;12.80;99.90;;;;;;5030796;28;20405;-63
2022/12/22 10:21:46;;;;;;;12.60;11.40;;;12.90;99.90;;;;;;4979423;28;20483;-62
2022/12/22 10:24:18;;;;;;;11.57;10.57;;;12.90;99.90;;;;;;5025839;28;20479;-62
2022/12/22 10:26:44;;;;;;;11.90;10.70;;;12.90;99.90;;;;;;5027614;28;20258;-63
2022/12/22 10:29:12;;;;;;;12.43;11.13;;;12.90;99.90;;;;;;5031104;28;20527;-65
2022/12/22 10:32:01;;;;;;;10.93;9.90;;;12.90;99.90;;;;;;5029109;28;20443;-64
2022/12/22 10:34:27;;;;;;;11.17;10.07;;;12.90;99.90;;;;;;5031117;28;20841;-63
2022/12/22 10:37:00;;;;;;;11.90;10.33;;;12.90;99.90;;;;;;5029395;28;20438;-64
2022/12/22 10:39:34;;;;;;;12.73;11.43;;;12.90;99.90;;;;;;5032862;28;20438;-64
2022/12/22 10:42:08;;;;;;;11.47;10.27;;;12.90;99.90;;;;;;5029815;28;20465;-64
2022/12/22 10:44:36;;;;;;;12.10;10.37;;;12.90;99.90;;;;;;5029127;28;20769;-65
2022/12/22 10:47:15;;;;;;;13.10;11.57;;;12.80;99.90;;;;;;5029088;28;20895;-63
2022/12/22 10:49:48;;;;;;;17.93;13.47;;;12.60;99.90;;;;;;5028241;28;20431;-64
2022/12/22 10:52:23;;;;;;;17.20;12.40;;;12.60;99.90;;;;;;5031793;28;20429;-63
2022/12/22 10:54:49;;;;;;;19.20;15.03;;;12.50;99.90;;;;;;5008933;28;20432;-63
2022/12/22 10:57:18;;;;;;;20.67;14.70;;;12.50;99.90;;;;;;5031433;28;20510;-64
2022/12/22 11:00:00;;;;;;;23.17;16.40;;;12.50;99.90;;;;;;5029805;28;20506;-63
2022/12/22 11:02:31;;;;;;;24.33;16.20;;;12.50;99.90;;;;;;5030527;28;20465;-63
2022/12/22 11:05:09;;;;;;;23.67;16.23;;;12.50;99.90;;;;;;5029706;28;20492;-63
2022/12/22 11:07:38;;;;;;;24.70;17.60;;;12.40;99.90;;;;;;5028307;28;20448;-65
2022/12/22 11:10:29;;;;;;;21.77;16.60;;;12.40;99.90;;;;;;5030525;28;20432;-64
2022/12/22 11:13:38;;;;;;;21.03;15.17;;;12.50;99.90;;;;;;5010291;28;20483;-63
2022/12/22 11:16:25;;;;;;;21.97;16.47;;;12.50;99.90;;;;;;5030435;28;20447;-66
2022/12/22 11:19:00;;;;;;;26.73;17.27;;;12.40;99.90;;;;;;5022856;28;21066;-64
2022/12/22 11:21:44;;;;;;;20.30;16.23;;;12.40;99.90;;;;;;5029589;28;20514;-64
2022/12/22 11:24:34;;;;;;;26.60;17.70;;;12.30;99.90;;;;;;5029217;28;20515;-65
2022/12/22 11:27:40;;;;;;;20.07;15.53;;;12.30;99.90;;;;;;5030075;28;20974;-63
2022/12/22 11:30:15;;;;;;;23.63;17.53;;;12.30;99.90;;;;;;5020662;28;20455;-64
2022/12/22 11:32:53;;;;;;;20.57;15.37;;;12.30;99.90;;;;;;5030569;28;20433;-64
2022/12/22 11:35:37;;;;;;;19.77;15.93;;;12.20;99.90;;;;;;5030251;28;20437;-63
2022/12/22 11:38:38;;;;;;;21.10;16.43;;;12.20;99.90;;;;;;5028566;28;20437;-63
2022/12/22 11:41:51;;;;;;;16.67;14.37;;;12.20;99.90;;;;;;5030504;28;20428;-64
2022/12/22 11:44:25;;;;;;;19.93;14.80;;;12.30;99.90;;;;;;4951304;28;20459;-63
2022/12/22 11:46:56;;;;;;;17.13;13.87;;;12.30;99.90;;;;;;5010615;28;20448;-64
2022/12/22 11:49:31;;;;;;;15.13;12.03;;;12.40;99.90;;;;;;5029875;28;20437;-63
2022/12/22 11:52:03;;;;;;;15.60;12.30;;;12.40;99.90;;;;;;5031069;28;20527;-63
2022/12/22 11:54:37;;;;;;;14.93;12.20;;;12.40;99.90;;;;;;5030490;28;20436;-63
2022/12/22 11:57:21;;;;;;;12.30;10.97;;;12.40;99.90;;;;;;5029548;28;20439;-63
2022/12/22 12:00:11;;;;;;;12.67;11.17;;;12.60;99.90;;;;;;5029273;28;20426;-63
2022/12/22 12:02:58;;;;;;;15.37;11.03;;;12.90;99.90;;;;;;5029746;28;20550;-67
2022/12/22 12:05:40;;;;;;;11.70;10.50;;;13.20;99.90;;;;;;5029081;28;20786;-64
2022/12/22 12:08:22;;;;;;;12.40;10.33;;;13.50;99.90;;;;;;5030877;28;20441;-64
2022/12/22 12:10:59;;;;;;;11.77;9.73;;;13.80;99.90;;;;;;5028909;28;21339;-64
2022/12/22 12:13:41;;;;;;;11.33;10.07;;;14.00;99.90;;;;;;5029165;28;20429;-62
2022/12/22 12:16:18;;;;;;;13.80;10.73;;;14.10;99.90;;;;;;5031257;28;20439;-63
2022/12/22 12:19:12;;;;;;;11.87;10.20;;;14.10;99.90;;;;;;5021731;28;20472;-64
2022/12/22 12:21:54;;;;;;;12.90;11.13;;;14.10;99.90;;;;;;5033409;28;20971;-68
2022/12/22 12:24:43;;;;;;;13.70;11.93;;;14.20;99.90;;;;;;5024495;28;20464;-65
2022/12/22 12:27:34;;;;;;;16.27;13.27;;;14.10;99.90;;;;;;5031589;28;20432;-64
2022/12/22 12:30:15;;;;;;;15.60;12.87;;;14.20;99.90;;;;;;5033740;28;20925;-64
2022/12/22 12:32:59;;;;;;;13.53;12.13;;;14.30;99.90;;;;;;5033771;28;20470;-64
2022/12/22 12:35:30;;;;;;;16.57;13.57;;;14.30;99.90;;;;;;5032819;28;20448;-64
2022/12/22 12:38:21;;;;;;;14.53;12.73;;;14.30;99.90;;;;;;5031355;28;20428;-64
2022/12/22 12:40:59;;;;;;;16.73;13.67;;;14.30;99.90;;;;;;5032608;28;20502;-64
2022/12/22 12:43:25;;;;;;;15.90;14.00;;;14.40;99.90;;;;;;5017821;28;20460;-64
2022/12/22 12:45:51;;;;;;;16.33;13.83;;;14.40;99.90;;;;;;5034427;28;20424;-63
2022/12/22 12:48:20;;;;;;;17.40;14.63;;;14.30;99.90;;;;;;5033793;28;20950;-63
2022/12/22 12:50:56;;;;;;;16.60;13.60;;;14.20;99.90;;;;;;5033141;28;20818;-63
2022/12/22 12:53:29;;;;;;;16.83;14.50;;;14.20;99.90;;;;;;5033634;28;20423;-64
2022/12/22 12:56:01;;;;;;;19.47;14.13;;;14.20;99.90;;;;;;5030057;28;20444;-64
2022/12/22 12:58:38;;;;;;;15.30;12.50;;;14.10;99.90;;;;;;5032214;28;20904;-65
2022/12/22 13:01:27;;;;;;;14.70;12.77;;;14.10;99.90;;;;;;5037460;28;20962;-65
2022/12/22 13:03:53;;;;;;;14.40;13.00;;;14.00;99.90;;;;;;5040419;28;20436;-63
2022/12/22 13:06:52;;;;;;;13.70;11.93;;;14.00;99.90;;;;;;5033822;28;20447;-62
2022/12/22 13:09:23;;;;;;;12.27;11.07;;;14.00;99.90;;;;;;5039406;28;20185;-63
2022/12/22 13:11:49;;;;;;;12.57;11.30;;;14.10;99.90;;;;;;5042500;28;20518;-65
2022/12/22 13:14:52;;;;;;;13.27;11.97;;;14.10;99.90;;;;;;5032324;28;20515;-63
2022/12/22 13:17:48;;;;;;;13.23;9.63;;;14.10;99.90;;;;;;5024725;28;20181;-63
2022/12/22 13:20:37;;;;;;;10.60;8.47;;;14.10;99.90;;;;;;5028457;28;20761;-64
2022/12/22 13:23:13;;;;;;;10.07;9.07;;;14.10;99.90;;;;;;5029431;28;20497;-72
2022/12/22 13:25:46;;;;;;;9.03;8.20;;;14.20;99.90;;;;;;5042101;28;20431;-79
2022/12/22 13:28:17;;;;;;;8.80;7.93;;;14.20;99.90;;;;;;5029520;28;20425;-71
2022/12/22 13:31:03;;;;;;;11.17;8.57;;;14.10;99.90;;;;;;5029960;28;20491;-69
2022/12/22 13:33:35;;;;;;;8.27;7.47;;;14.00;99.90;;;;;;5032315;28;20442;-75
2022/12/22 13:36:02;;;;;;;10.03;8.33;;;13.90;99.90;;;;;;5030903;28;20515;-71
2022/12/22 13:38:34;;;;;;;8.83;7.93;;;13.90;99.90;;;;;;5024185;28;22334;-73
2022/12/22 13:41:11;;;;;;;10.33;8.50;;;13.90;99.90;;;;;;5027434;28;20439;-71
2022/12/22 13:43:37;;;;;;;9.07;8.13;;;13.90;99.90;;;;;;5030388;28;20475;-76
2022/12/22 13:46:04;;;;;;;10.77;8.10;;;13.90;99.90;;;;;;5022892;28;20501;-75
2022/12/22 13:48:41;;;;;;;9.40;7.87;;;13.80;99.90;;;;;;5016287;28;20440;-72
2022/12/22 13:51:20;;;;;;;11.37;8.80;;;13.80;99.90;;;;;;5031092;28;20444;-70
2022/12/22 13:53:51;;;;;;;9.63;8.47;;;13.70;99.90;;;;;;5033415;28;20444;-70
2022/12/22 13:56:21;;;;;;;9.43;8.37;;;13.70;99.90;;;;;;5034516;28;20442;-71
2022/12/22 13:58:54;;;;;;;10.50;8.53;;;13.60;99.90;;;;;;5044124;28;20432;-70
2022/12/22 14:01:20;;;;;;;12.07;8.07;;;13.50;99.90;;;;;;5030947;28;20434;-71
2022/12/22 14:03:49;;;;;;;9.03;8.23;;;13.50;99.90;;;;;;5027011;28;20473;-74
2022/12/22 14:06:28;;;;;;;11.93;9.83;;;13.50;99.90;;;;;;5030462;28;20557;-72
2022/12/22 14:09:18;;;;;;;9.43;8.43;;;13.50;99.90;;;;;;5032300;28;22159;-73
2022/12/22 14:12:06;;;;;;;11.70;9.50;;;13.50;99.90;;;;;;5027766;28;20441;-75
2022/12/22 14:14:36;;;;;;;12.70;10.00;;;13.50;99.90;;;;;;5033853;28;20431;-69
2022/12/22 14:17:03;;;;;;;10.23;9.20;;;13.40;99.90;;;;;;5028888;28;20522;-70
2022/12/22 14:19:35;;;;;;;12.50;10.33;;;13.40;99.90;;;;;;5029377;28;20817;-71
2022/12/22 14:22:02;;;;;;;10.97;9.87;;;13.40;99.90;;;;;;5027476;28;22082;-70
2022/12/22 14:24:33;;;;;;;11.63;9.80;;;13.40;99.90;;;;;;5027465;28;20917;-70
2022/12/22 14:27:00;;;;;;;10.90;9.77;;;13.50;99.90;;;;;;5017357;28;20526;-72
2022/12/22 14:29:27;;;;;;;10.30;9.20;;;13.30;99.90;;;;;;5019331;28;20465;-71
2022/12/22 14:31:55;;;;;;;8.80;7.80;;;13.20;99.90;;;;;;5024911;28;20437;-69
2022/12/22 14:34:33;;;;;;;9.87;8.87;;;13.10;99.90;;;;;;5021273;28;20426;-71
2022/12/22 14:37:00;;;;;;;9.03;7.93;;;13.10;99.90;;;;;;5023977;28;20423;-72
2022/12/22 14:39:30;;;;;;;9.30;8.40;;;13.00;99.90;;;;;;5024480;28;20556;-70
2022/12/22 14:41:58;;;;;;;11.27;8.93;;;13.00;99.90;;;;;;5027150;28;20471;-71
2022/12/22 14:44:33;;;;;;;11.83;8.53;;;12.90;99.90;;;;;;5025123;28;20460;-71
2022/12/22 14:47:10;;;;;;;10.87;8.73;;;12.80;99.90;;;;;;5024015;28;20424;-70
2022/12/22 14:49:52;;;;;;;8.83;7.90;;;12.80;99.90;;;;;;5024559;28;20447;-70
2022/12/22 14:52:42;;;;;;;12.27;8.90;;;12.80;99.90;;;;;;5019467;28;20469;-73
2022/12/22 14:55:32;;;;;;;10.43;8.40;;;12.80;99.90;;;;;;5026263;28;20439;-70
2022/12/22 14:58:09;;;;;;;9.50;8.50;;;12.80;99.90;;;;;;5026283;28;20464;-76
2022/12/22 15:00:44;;;;;;;10.40;9.33;;;12.80;99.90;;;;;;5034981;28;20930;-76
2022/12/22 15:03:35;;;;;;;9.30;8.40;;;12.70;99.90;;;;;;5035299;28;20456;-70
2022/12/22 15:06:25;;;;;;;9.50;8.60;;;12.70;99.90;;;;;;5021180;28;20534;-70
2022/12/22 15:08:54;;;;;;;12.17;10.03;;;12.70;99.90;;;;;;5024687;28;20484;-70
2022/12/22 15:11:22;;;;;;;11.03;9.30;;;12.60;99.90;;;;;;5025871;28;20438;-70
2022/12/22 15:13:49;;;;;;;9.87;8.87;;;12.60;99.90;;;;;;5025391;28;20529;-69
2022/12/22 15:16:17;;;;;;;11.87;9.20;;;12.60;99.90;;;;;;5021401;28;20430;-71
2022/12/22 15:18:44;;;;;;;11.70;9.90;;;12.60;99.90;;;;;;5025962;28;20432;-76
2022/12/22 15:21:15;;;;;;;10.27;9.20;;;12.60;99.90;;;;;;5027268;28;20445;-71
2022/12/22 15:23:41;;;;;;;10.00;8.70;;;12.60;99.90;;;;;;5026437;28;20478;-75
2022/12/22 15:26:07;;;;;;;10.70;9.47;;;12.60;99.90;;;;;;5027327;28;20459;-70
2022/12/22 15:28:33;;;;;;;9.53;8.57;;;12.60;99.90;;;;;;5024825;28;20447;-64
2022/12/22 15:31:00;;;;;;;9.30;8.40;;;12.60;99.90;;;;;;5017700;28;20506;-64
2022/12/22 15:33:26;;;;;;;10.13;9.10;;;12.70;99.90;;;;;;5022102;28;20186;-67
2022/12/22 15:35:52;;;;;;;9.50;8.27;;;12.70;99.90;;;;;;5018269;28;20429;-66
2022/12/22 15:38:20;;;;;;;10.90;8.30;;;12.70;99.90;;;;;;5025029;28;20430;-64
2022/12/22 15:40:46;;;;;;;9.33;8.10;;;12.70;99.90;;;;;;5020421;28;20181;-63
2022/12/22 15:43:13;;;;;;;11.83;9.03;;;12.70;99.90;;;;;;5026797;28;20472;-65
2022/12/22 15:45:40;;;;;;;9.50;8.50;;;12.70;99.90;;;;;;5016601;28;20521;-63
2022/12/22 15:48:12;;;;;;;8.93;7.50;;;12.70;99.90;;;;;;5028510;28;20554;-64
2022/12/22 15:50:42;;;;;;;8.73;7.87;;;12.70;99.90;;;;;;5027708;28;20433;-63
2022/12/22 15:53:13;;;;;;;8.03;7.23;;;12.60;99.90;;;;;;5029802;28;20442;-64
2022/12/22 15:55:43;;;;;;;8.93;8.03;;;12.60;99.90;;;;;;5028585;28;20440;-67
2022/12/22 15:58:12;;;;;;;8.30;7.50;;;12.60;99.90;;;;;;5027425;28;20422;-63
2022/12/22 16:00:38;;;;;;;8.87;7.83;;;12.70;99.90;;;;;;5032544;28;20426;-63
2022/12/22 16:03:04;;;;;;;9.13;8.20;;;12.60;99.90;;;;;;5027652;28;20816;-64
2022/12/22 16:05:31;;;;;;;9.70;8.70;;;12.60;99.90;;;;;;5032100;28;20436;-63
2022/12/22 16:07:58;;;;;;;8.83;8.03;;;12.60;99.90;;;;;;5028913;28;20787;-63
2022/12/22 16:10:27;;;;;;;9.13;8.23;;;12.60;99.90;;;;;;5030537;28;20456;-64
2022/12/22 16:13:01;;;;;;;12.07;9.63;;;12.60;99.90;;;;;;5034837;28;20427;-63
2022/12/22 16:15:30;;;;;;;10.97;9.77;;;12.60;99.90;;;;;;5032706;28;20464;-62
2022/12/22 16:18:00;;;;;;;11.70;10.40;;;12.60;99.90;;;;;;5031504;28;20503;-63
2022/12/22 16:20:34;;;;;;;11.30;9.80;;;12.60;99.90;;;;;;5031455;28;20528;-67
2022/12/22 16:23:02;;;;;;;11.50;10.20;;;12.60;99.90;;;;;;5028804;28;20568;-63
2022/12/22 16:25:34;;;;;;;11.73;10.30;;;12.60;99.90;;;;;;5030325;28;20445;-63
2022/12/22 16:28:01;;;;;;;10.70;9.60;;;12.60;99.90;;;;;;5032423;28;20773;-63
2022/12/22 16:30:30;;;;;;;10.20;9.13;;;12.60;99.90;;;;;;5027417;28;21601;-63
2022/12/22 16:32:56;;;;;;;10.27;9.20;;;12.60;99.90;;;;;;5017204;28;20575;-63
2022/12/22 16:35:24;;;;;;;10.67;9.10;;;12.50;99.90;;;;;;5033956;28;20879;-64
2022/12/22 16:37:50;;;;;;;10.93;9.50;;;12.50;99.90;;;;;;5032620;28;20433;-68